Orbital elements of FENGYUN 1C DEB
| Launched | 9 May 1999 |
| Flight ended | – |
| Launch site | Taiyuan Space Center, PRC |
| Owner | People's Republic of China |
| NORAD ID | 31990 |
| Date fetched |
Epoch osculation |
Inc. [°] |
Ecc. | RA asc node [hr] |
Arg Peri. [°] |
Mean anom [°] |
Mean motion [rev/day] |
Abs. mag |
| Date fetched |
Epoch osculation |
Inc. [°] |
Ecc. | RA asc node [hr] |
Arg Peri. [°] |
Mean anom [°] |
Mean motion [rev/day] |
Abs. mag |
| 2026 May 05 17:57 | 2026 May 05 12:48:38 | 99.1484 | 0.02602 | 9.5503 | 176.1545 | 336.9391 | 13.57280 | – |
| 2026 May 04 17:57 | 2026 Apr 30 12:31:09 | 99.1487 | 0.02599 | 9.2389 | 188.9946 | 336.9391 | 13.57280 | – |
| 2026 May 03 17:57 | 2026 Apr 30 12:31:09 | 99.1487 | 0.02599 | 9.2389 | 188.9946 | 336.9391 | 13.57280 | – |
| 2026 May 02 17:57 | 2026 Apr 30 12:31:09 | 99.1487 | 0.02599 | 9.2389 | 188.9946 | 336.9391 | 13.57280 | – |
| 2026 May 01 17:56 | 2026 Apr 30 12:31:09 | 99.1487 | 0.02599 | 9.2389 | 188.9946 | 336.9391 | 13.57280 | – |
| 2026 Apr 30 17:56 | 2026 Apr 30 12:31:09 | 99.1487 | 0.02599 | 9.2389 | 188.9946 | 336.9391 | 13.57280 | – |
| 2026 Apr 29 17:57 | 2026 Apr 24 13:12:33 | 99.1495 | 0.02596 | 8.8681 | 204.3012 | 336.9391 | 13.57280 | – |
| 2026 Apr 28 17:56 | 2026 Apr 24 13:12:33 | 99.1495 | 0.02596 | 8.8681 | 204.3012 | 336.9391 | 13.57280 | – |
| 2026 Apr 27 17:58 | 2026 Apr 24 13:12:33 | 99.1495 | 0.02596 | 8.8681 | 204.3012 | 336.9391 | 13.57280 | – |
| 2026 Apr 26 17:58 | 2026 Apr 24 13:12:33 | 99.1495 | 0.02596 | 8.8681 | 204.3012 | 336.9391 | 13.57280 | – |
| 2026 Apr 25 17:58 | 2026 Apr 24 13:12:33 | 99.1495 | 0.02596 | 8.8681 | 204.3012 | 336.9391 | 13.57280 | – |
| 2026 Apr 24 17:59 | 2026 Apr 24 13:12:33 | 99.1495 | 0.02596 | 8.8681 | 204.3012 | 336.9391 | 13.57280 | – |
| 2026 Apr 23 17:57 | 2026 Apr 17 13:08:23 | 99.1504 | 0.02593 | 8.4330 | 222.2739 | 336.9391 | 13.57280 | – |
| 2026 Apr 22 17:57 | 2026 Apr 17 13:08:23 | 99.1504 | 0.02593 | 8.4330 | 222.2739 | 336.9391 | 13.57280 | – |
| 2026 Apr 21 17:57 | 2026 Apr 17 13:08:23 | 99.1504 | 0.02593 | 8.4330 | 222.2739 | 336.9391 | 13.57280 | – |
| 2026 Apr 20 17:57 | 2026 Apr 17 13:08:23 | 99.1504 | 0.02593 | 8.4330 | 222.2739 | 336.9391 | 13.57280 | – |
| 2026 Apr 19 17:58 | 2026 Apr 17 13:08:23 | 99.1504 | 0.02593 | 8.4330 | 222.2739 | 336.9391 | 13.57280 | – |
| 2026 Apr 18 17:56 | 2026 Apr 12 20:01:40 | 99.1508 | 0.02591 | 8.1402 | 234.3813 | 336.9391 | 13.57280 | – |
| 2026 Apr 16 17:57 | 2026 Apr 12 20:01:40 | 99.1508 | 0.02591 | 8.1402 | 234.3813 | 336.9391 | 13.57280 | – |
| 2026 Apr 14 17:57 | 2026 Apr 12 20:01:40 | 99.1508 | 0.02591 | 8.1402 | 234.3813 | 336.9391 | 13.57280 | – |
| 2026 Apr 13 17:57 | 2026 Apr 12 20:01:40 | 99.1508 | 0.02591 | 8.1402 | 234.3813 | 336.9391 | 13.57280 | – |
| 2026 Apr 12 17:57 | 2026 Apr 08 13:18:22 | 99.1512 | 0.02589 | 7.8743 | 245.3870 | 336.9391 | 13.57280 | – |
| 2026 Apr 11 17:57 | 2026 Apr 08 13:18:22 | 99.1512 | 0.02589 | 7.8743 | 245.3870 | 336.9391 | 13.57280 | – |
| 2026 Apr 10 17:58 | 2026 Apr 08 13:18:22 | 99.1512 | 0.02589 | 7.8743 | 245.3870 | 336.9391 | 13.57280 | – |
| 2026 Apr 09 18:01 | 2026 Apr 08 13:18:22 | 99.1512 | 0.02589 | 7.8743 | 245.3870 | 336.9391 | 13.57280 | – |
| 2026 Apr 08 17:57 | 2026 Apr 08 13:18:22 | 99.1512 | 0.02589 | 7.8743 | 245.3870 | 336.9391 | 13.57280 | – |